sensor_id;sensor_type;location;lat;lon;timestamp;temperature;humidity
8778;DHT22;4425;50.872;4.712;2023-04-06T00:00:48;5.10;99.90
8778;DHT22;4425;50.872;4.712;2023-04-06T00:03:15;5.10;99.90
8778;DHT22;4425;50.872;4.712;2023-04-06T00:05:42;5.10;99.90
8778;DHT22;4425;50.872;4.712;2023-04-06T00:08:10;5.00;99.90
8778;DHT22;4425;50.872;4.712;2023-04-06T00:10:39;4.90;99.90
8778;DHT22;4425;50.872;4.712;2023-04-06T00:13:06;5.00;99.90
8778;DHT22;4425;50.872;4.712;2023-04-06T00:15:34;5.00;99.90
8778;DHT22;4425;50.872;4.712;2023-04-06T00:18:02;4.90;99.90
8778;DHT22;4425;50.872;4.712;2023-04-06T00:20:29;4.90;99.90
8778;DHT22;4425;50.872;4.712;2023-04-06T00:22:56;4.90;99.90
8778;DHT22;4425;50.872;4.712;2023-04-06T00:25:23;4.90;99.90
8778;DHT22;4425;50.872;4.712;2023-04-06T00:27:52;4.80;99.90
8778;DHT22;4425;50.872;4.712;2023-04-06T00:30:19;4.70;99.90
8778;DHT22;4425;50.872;4.712;2023-04-06T00:32:46;4.70;99.90
8778;DHT22;4425;50.872;4.712;2023-04-06T00:35:13;4.70;99.90
8778;DHT22;4425;50.872;4.712;2023-04-06T00:37:40;4.60;99.90
8778;DHT22;4425;50.872;4.712;2023-04-06T00:40:09;4.60;99.90
8778;DHT22;4425;50.872;4.712;2023-04-06T00:42:36;4.60;99.90
8778;DHT22;4425;50.872;4.712;2023-04-06T00:45:06;4.60;99.90
8778;DHT22;4425;50.872;4.712;2023-04-06T00:47:33;4.60;99.90
8778;DHT22;4425;50.872;4.712;2023-04-06T00:50:01;4.70;99.90
8778;DHT22;4425;50.872;4.712;2023-04-06T00:52:28;4.70;99.90
8778;DHT22;4425;50.872;4.712;2023-04-06T00:54:55;4.80;99.90
8778;DHT22;4425;50.872;4.712;2023-04-06T00:57:23;4.80;99.90
8778;DHT22;4425;50.872;4.712;2023-04-06T00:59:50;4.80;99.90
8778;DHT22;4425;50.872;4.712;2023-04-06T01:02:24;5.00;99.90
8778;DHT22;4425;50.872;4.712;2023-04-06T01:04:54;5.00;99.90
8778;DHT22;4425;50.872;4.712;2023-04-06T01:07:23;5.10;99.90
8778;DHT22;4425;50.872;4.712;2023-04-06T01:09:50;5.20;99.90
8778;DHT22;4425;50.872;4.712;2023-04-06T01:12:19;5.20;99.90
8778;DHT22;4425;50.872;4.712;2023-04-06T01:14:46;5.20;99.90
8778;DHT22;4425;50.872;4.712;2023-04-06T01:17:14;5.20;99.90
8778;DHT22;4425;50.872;4.712;2023-04-06T01:19:43;5.20;99.90
8778;DHT22;4425;50.872;4.712;2023-04-06T01:22:16;5.30;99.90
8778;DHT22;4425;50.872;4.712;2023-04-06T01:24:43;5.30;99.90
8778;DHT22;4425;50.872;4.712;2023-04-06T01:27:10;5.30;99.90
8778;DHT22;4425;50.872;4.712;2023-04-06T01:29:37;5.30;99.90
8778;DHT22;4425;50.872;4.712;2023-04-06T01:32:07;5.30;99.90
8778;DHT22;4425;50.872;4.712;2023-04-06T01:34:34;5.30;99.90
8778;DHT22;4425;50.872;4.712;2023-04-06T01:37:01;5.30;99.90
8778;DHT22;4425;50.872;4.712;2023-04-06T01:39:30;5.30;99.90
8778;DHT22;4425;50.872;4.712;2023-04-06T01:41:57;5.40;99.90
8778;DHT22;4425;50.872;4.712;2023-04-06T01:44:24;5.40;99.90
8778;DHT22;4425;50.872;4.712;2023-04-06T01:46:51;5.40;99.90
8778;DHT22;4425;50.872;4.712;2023-04-06T01:49:18;5.40;99.90
8778;DHT22;4425;50.872;4.712;2023-04-06T01:51:45;5.40;99.90
8778;DHT22;4425;50.872;4.712;2023-04-06T01:54:13;5.50;99.90
8778;DHT22;4425;50.872;4.712;2023-04-06T01:56:41;5.60;99.90
8778;DHT22;4425;50.872;4.712;2023-04-06T01:59:08;5.60;99.90
8778;DHT22;4425;50.872;4.712;2023-04-06T02:01:35;5.70;99.90
8778;DHT22;4425;50.872;4.712;2023-04-06T02:04:03;5.70;99.90
8778;DHT22;4425;50.872;4.712;2023-04-06T02:06:30;5.70;99.90
8778;DHT22;4425;50.872;4.712;2023-04-06T02:08:57;5.70;99.90
8778;DHT22;4425;50.872;4.712;2023-04-06T02:11:25;5.60;99.90
8778;DHT22;4425;50.872;4.712;2023-04-06T02:13:53;5.60;99.90
8778;DHT22;4425;50.872;4.712;2023-04-06T02:16:20;5.60;99.90
8778;DHT22;4425;50.872;4.712;2023-04-06T02:18:48;5.60;99.90
8778;DHT22;4425;50.872;4.712;2023-04-06T02:21:16;5.60;99.90
8778;DHT22;4425;50.872;4.712;2023-04-06T02:23:45;5.60;99.90
8778;DHT22;4425;50.872;4.712;2023-04-06T02:26:14;5.60;99.90
8778;DHT22;4425;50.872;4.712;2023-04-06T02:28:41;5.60;99.90
8778;DHT22;4425;50.872;4.712;2023-04-06T02:31:10;5.60;99.90
8778;DHT22;4425;50.872;4.712;2023-04-06T02:33:37;5.50;99.90
8778;DHT22;4425;50.872;4.712;2023-04-06T02:36:05;5.60;99.90
8778;DHT22;4425;50.872;4.712;2023-04-06T02:38:32;5.60;99.90
8778;DHT22;4425;50.872;4.712;2023-04-06T02:41:00;5.70;99.90
8778;DHT22;4425;50.872;4.712;2023-04-06T02:43:27;5.70;99.90
8778;DHT22;4425;50.872;4.712;2023-04-06T02:45:55;5.80;99.90
8778;DHT22;4425;50.872;4.712;2023-04-06T02:48:23;5.80;99.90
8778;DHT22;4425;50.872;4.712;2023-04-06T02:50:53;5.80;99.90
8778;DHT22;4425;50.872;4.712;2023-04-06T02:53:20;5.70;99.90
8778;DHT22;4425;50.872;4.712;2023-04-06T02:55:47;5.80;99.90
8778;DHT22;4425;50.872;4.712;2023-04-06T02:58:14;5.70;99.90
8778;DHT22;4425;50.872;4.712;2023-04-06T03:00:41;5.70;99.90
8778;DHT22;4425;50.872;4.712;2023-04-06T03:03:08;5.70;99.90
8778;DHT22;4425;50.872;4.712;2023-04-06T03:05:37;5.60;99.90
8778;DHT22;4425;50.872;4.712;2023-04-06T03:08:04;5.50;99.90
8778;DHT22;4425;50.872;4.712;2023-04-06T03:10:31;5.50;99.90
8778;DHT22;4425;50.872;4.712;2023-04-06T03:12:58;5.50;99.90
8778;DHT22;4425;50.872;4.712;2023-04-06T03:15:25;5.50;99.90
8778;DHT22;4425;50.872;4.712;2023-04-06T03:17:53;5.50;99.90
8778;DHT22;4425;50.872;4.712;2023-04-06T03:20:20;5.50;99.90
8778;DHT22;4425;50.872;4.712;2023-04-06T03:22:48;5.60;99.90
8778;DHT22;4425;50.872;4.712;2023-04-06T03:25:15;5.60;99.90
8778;DHT22;4425;50.872;4.712;2023-04-06T03:27:42;5.60;99.90
8778;DHT22;4425;50.872;4.712;2023-04-06T03:30:10;5.60;99.90
8778;DHT22;4425;50.872;4.712;2023-04-06T03:32:37;5.60;99.90
8778;DHT22;4425;50.872;4.712;2023-04-06T03:35:05;5.60;99.90
8778;DHT22;4425;50.872;4.712;2023-04-06T03:37:32;5.60;99.90
8778;DHT22;4425;50.872;4.712;2023-04-06T03:40:00;5.50;99.90
8778;DHT22;4425;50.872;4.712;2023-04-06T03:42:28;5.50;99.90
8778;DHT22;4425;50.872;4.712;2023-04-06T03:44:55;5.50;99.90
8778;DHT22;4425;50.872;4.712;2023-04-06T03:47:22;5.50;99.90
8778;DHT22;4425;50.872;4.712;2023-04-06T03:49:49;5.50;99.90
8778;DHT22;4425;50.872;4.712;2023-04-06T03:52:16;5.50;99.90
8778;DHT22;4425;50.872;4.712;2023-04-06T03:54:43;5.50;99.90
8778;DHT22;4425;50.872;4.712;2023-04-06T03:57:13;5.50;99.90
8778;DHT22;4425;50.872;4.712;2023-04-06T03:59:40;5.50;99.90
8778;DHT22;4425;50.872;4.712;2023-04-06T04:02:07;5.50;99.90
8778;DHT22;4425;50.872;4.712;2023-04-06T04:04:34;5.50;99.90
8778;DHT22;4425;50.872;4.712;2023-04-06T04:07:01;5.60;99.90
8778;DHT22;4425;50.872;4.712;2023-04-06T04:09:28;5.60;99.90
8778;DHT22;4425;50.872;4.712;2023-04-06T04:11:55;5.60;99.90
8778;DHT22;4425;50.872;4.712;2023-04-06T04:14:24;5.70;99.90
8778;DHT22;4425;50.872;4.712;2023-04-06T04:16:51;5.70;99.90
8778;DHT22;4425;50.872;4.712;2023-04-06T04:19:18;5.70;99.90
8778;DHT22;4425;50.872;4.712;2023-04-06T04:21:46;5.70;99.90
8778;DHT22;4425;50.872;4.712;2023-04-06T04:24:14;5.80;99.90
8778;DHT22;4425;50.872;4.712;2023-04-06T04:26:41;5.80;99.90
8778;DHT22;4425;50.872;4.712;2023-04-06T04:29:08;5.80;99.90
8778;DHT22;4425;50.872;4.712;2023-04-06T04:31:36;5.90;99.90
8778;DHT22;4425;50.872;4.712;2023-04-06T04:34:05;5.90;99.90
8778;DHT22;4425;50.872;4.712;2023-04-06T04:36:33;5.90;99.90
8778;DHT22;4425;50.872;4.712;2023-04-06T04:39:00;5.80;99.90
8778;DHT22;4425;50.872;4.712;2023-04-06T04:41:27;5.80;99.90
8778;DHT22;4425;50.872;4.712;2023-04-06T04:43:54;5.80;99.90
8778;DHT22;4425;50.872;4.712;2023-04-06T04:46:21;5.80;99.90
8778;DHT22;4425;50.872;4.712;2023-04-06T04:48:50;5.80;99.90
8778;DHT22;4425;50.872;4.712;2023-04-06T04:51:17;5.80;99.90
8778;DHT22;4425;50.872;4.712;2023-04-06T04:53:46;5.90;99.90
8778;DHT22;4425;50.872;4.712;2023-04-06T04:56:13;5.90;99.90
8778;DHT22;4425;50.872;4.712;2023-04-06T04:58:40;5.90;99.90
8778;DHT22;4425;50.872;4.712;2023-04-06T05:01:07;5.90;99.90
8778;DHT22;4425;50.872;4.712;2023-04-06T05:03:35;5.90;99.90
8778;DHT22;4425;50.872;4.712;2023-04-06T05:06:06;5.90;99.90
8778;DHT22;4425;50.872;4.712;2023-04-06T05:08:33;6.00;99.90
8778;DHT22;4425;50.872;4.712;2023-04-06T05:11:00;6.00;99.90
8778;DHT22;4425;50.872;4.712;2023-04-06T05:13:29;6.00;99.90
8778;DHT22;4425;50.872;4.712;2023-04-06T05:15:56;6.00;99.90
8778;DHT22;4425;50.872;4.712;2023-04-06T05:18:23;6.00;99.90
8778;DHT22;4425;50.872;4.712;2023-04-06T05:20:52;6.10;99.90
8778;DHT22;4425;50.872;4.712;2023-04-06T05:23:25;6.10;99.90
8778;DHT22;4425;50.872;4.712;2023-04-06T05:25:52;6.20;99.90
8778;DHT22;4425;50.872;4.712;2023-04-06T05:28:19;6.10;99.90
8778;DHT22;4425;50.872;4.712;2023-04-06T05:30:46;6.20;99.90
8778;DHT22;4425;50.872;4.712;2023-04-06T05:33:16;6.10;99.90
8778;DHT22;4425;50.872;4.712;2023-04-06T05:35:44;6.20;99.90
8778;DHT22;4425;50.872;4.712;2023-04-06T05:38:11;6.20;99.90
8778;DHT22;4425;50.872;4.712;2023-04-06T05:40:44;6.20;99.90
8778;DHT22;4425;50.872;4.712;2023-04-06T05:43:11;6.10;99.90
8778;DHT22;4425;50.872;4.712;2023-04-06T05:45:38;6.10;99.90
8778;DHT22;4425;50.872;4.712;2023-04-06T05:48:05;6.20;99.90
8778;DHT22;4425;50.872;4.712;2023-04-06T05:50:33;6.20;99.90
8778;DHT22;4425;50.872;4.712;2023-04-06T05:53:00;6.30;99.90
8778;DHT22;4425;50.872;4.712;2023-04-06T05:55:27;6.30;99.90
8778;DHT22;4425;50.872;4.712;2023-04-06T05:57:55;6.30;99.90
8778;DHT22;4425;50.872;4.712;2023-04-06T06:00:22;6.40;99.90
8778;DHT22;4425;50.872;4.712;2023-04-06T06:02:50;6.40;99.90
8778;DHT22;4425;50.872;4.712;2023-04-06T06:05:17;6.60;99.90
8778;DHT22;4425;50.872;4.712;2023-04-06T06:07:44;6.60;99.90
8778;DHT22;4425;50.872;4.712;2023-04-06T06:10:11;6.80;99.90
8778;DHT22;4425;50.872;4.712;2023-04-06T06:12:38;6.90;99.90
8778;DHT22;4425;50.872;4.712;2023-04-06T06:15:07;7.00;99.90
8778;DHT22;4425;50.872;4.712;2023-04-06T06:17:34;7.10;99.90
8778;DHT22;4425;50.872;4.712;2023-04-06T06:20:01;7.30;99.90
8778;DHT22;4425;50.872;4.712;2023-04-06T06:22:29;7.40;99.90
8778;DHT22;4425;50.872;4.712;2023-04-06T06:24:56;7.40;99.90
8778;DHT22;4425;50.872;4.712;2023-04-06T06:27:23;7.40;99.90
8778;DHT22;4425;50.872;4.712;2023-04-06T06:29:50;7.40;99.90
8778;DHT22;4425;50.872;4.712;2023-04-06T06:32:18;7.50;99.90
8778;DHT22;4425;50.872;4.712;2023-04-06T06:34:45;7.60;99.90
8778;DHT22;4425;50.872;4.712;2023-04-06T06:37:13;7.70;99.90
8778;DHT22;4425;50.872;4.712;2023-04-06T06:39:40;7.80;99.90
8778;DHT22;4425;50.872;4.712;2023-04-06T06:42:07;7.90;99.90
8778;DHT22;4425;50.872;4.712;2023-04-06T06:44:34;7.90;99.90
8778;DHT22;4425;50.872;4.712;2023-04-06T06:47:01;7.90;99.90
8778;DHT22;4425;50.872;4.712;2023-04-06T06:49:30;7.90;99.90
8778;DHT22;4425;50.872;4.712;2023-04-06T06:51:58;8.00;99.90
8778;DHT22;4425;50.872;4.712;2023-04-06T06:54:25;7.90;99.90
8778;DHT22;4425;50.872;4.712;2023-04-06T06:56:52;8.00;99.90
8778;DHT22;4425;50.872;4.712;2023-04-06T06:59:20;8.00;99.90
8778;DHT22;4425;50.872;4.712;2023-04-06T07:01:50;8.10;99.90
8778;DHT22;4425;50.872;4.712;2023-04-06T07:04:17;8.20;99.90
8778;DHT22;4425;50.872;4.712;2023-04-06T07:06:46;8.30;99.90
8778;DHT22;4425;50.872;4.712;2023-04-06T07:09:13;8.30;99.90
8778;DHT22;4425;50.872;4.712;2023-04-06T07:11:40;8.40;99.90
8778;DHT22;4425;50.872;4.712;2023-04-06T07:14:07;8.50;99.90
8778;DHT22;4425;50.872;4.712;2023-04-06T07:16:34;8.60;99.90
8778;DHT22;4425;50.872;4.712;2023-04-06T07:19:01;8.60;99.90
8778;DHT22;4425;50.872;4.712;2023-04-06T07:21:28;8.70;99.90
8778;DHT22;4425;50.872;4.712;2023-04-06T07:23:57;8.70;99.90
8778;DHT22;4425;50.872;4.712;2023-04-06T07:26:24;8.80;99.90
8778;DHT22;4425;50.872;4.712;2023-04-06T07:28:51;8.90;99.90
8778;DHT22;4425;50.872;4.712;2023-04-06T07:31:18;8.80;99.90
8778;DHT22;4425;50.872;4.712;2023-04-06T07:33:45;8.80;99.90
8778;DHT22;4425;50.872;4.712;2023-04-06T07:36:12;8.80;99.90
8778;DHT22;4425;50.872;4.712;2023-04-06T07:38:40;8.80;99.90
8778;DHT22;4425;50.872;4.712;2023-04-06T07:41:08;8.80;99.90
8778;DHT22;4425;50.872;4.712;2023-04-06T07:43:35;8.90;99.90
8778;DHT22;4425;50.872;4.712;2023-04-06T07:46:03;8.90;99.90
8778;DHT22;4425;50.872;4.712;2023-04-06T07:48:30;8.80;99.90
8778;DHT22;4425;50.872;4.712;2023-04-06T07:51:01;8.80;99.90
8778;DHT22;4425;50.872;4.712;2023-04-06T07:53:28;8.80;99.90
8778;DHT22;4425;50.872;4.712;2023-04-06T07:55:58;8.80;99.90
8778;DHT22;4425;50.872;4.712;2023-04-06T07:58:26;8.90;99.90
8778;DHT22;4425;50.872;4.712;2023-04-06T08:00:53;9.00;99.90
8778;DHT22;4425;50.872;4.712;2023-04-06T08:03:21;9.00;99.90
8778;DHT22;4425;50.872;4.712;2023-04-06T08:05:51;9.10;99.90
8778;DHT22;4425;50.872;4.712;2023-04-06T08:08:18;9.00;99.90
8778;DHT22;4425;50.872;4.712;2023-04-06T08:10:46;8.90;99.90
8778;DHT22;4425;50.872;4.712;2023-04-06T08:13:14;8.80;99.90
8778;DHT22;4425;50.872;4.712;2023-04-06T08:15:42;8.70;99.90
8778;DHT22;4425;50.872;4.712;2023-04-06T08:18:10;8.60;99.90
8778;DHT22;4425;50.872;4.712;2023-04-06T08:20:37;8.60;99.90
8778;DHT22;4425;50.872;4.712;2023-04-06T08:23:04;8.60;99.90
8778;DHT22;4425;50.872;4.712;2023-04-06T08:25:33;8.50;99.90
8778;DHT22;4425;50.872;4.712;2023-04-06T08:28:03;8.50;99.90
8778;DHT22;4425;50.872;4.712;2023-04-06T08:30:30;8.50;99.90
8778;DHT22;4425;50.872;4.712;2023-04-06T08:32:58;8.60;99.90
8778;DHT22;4425;50.872;4.712;2023-04-06T08:35:27;8.50;99.90
8778;DHT22;4425;50.872;4.712;2023-04-06T08:37:54;8.50;99.90
8778;DHT22;4425;50.872;4.712;2023-04-06T08:40:21;8.50;99.90
8778;DHT22;4425;50.872;4.712;2023-04-06T08:42:50;8.50;99.90
8778;DHT22;4425;50.872;4.712;2023-04-06T08:45:18;8.50;99.90
8778;DHT22;4425;50.872;4.712;2023-04-06T08:47:47;8.50;99.90
8778;DHT22;4425;50.872;4.712;2023-04-06T08:50:16;8.50;99.90
8778;DHT22;4425;50.872;4.712;2023-04-06T08:52:44;8.50;99.90
8778;DHT22;4425;50.872;4.712;2023-04-06T08:55:13;8.50;99.90
8778;DHT22;4425;50.872;4.712;2023-04-06T08:57:40;8.60;99.90
8778;DHT22;4425;50.872;4.712;2023-04-06T09:00:10;8.80;99.90
8778;DHT22;4425;50.872;4.712;2023-04-06T09:02:39;8.80;99.90
8778;DHT22;4425;50.872;4.712;2023-04-06T09:05:08;8.90;99.90
8778;DHT22;4425;50.872;4.712;2023-04-06T09:07:41;8.80;99.90
8778;DHT22;4425;50.872;4.712;2023-04-06T09:10:08;8.80;99.90
8778;DHT22;4425;50.872;4.712;2023-04-06T09:12:36;8.70;99.90
8778;DHT22;4425;50.872;4.712;2023-04-06T09:15:03;8.70;99.90
8778;DHT22;4425;50.872;4.712;2023-04-06T09:17:32;8.80;99.90
8778;DHT22;4425;50.872;4.712;2023-04-06T09:19:59;8.80;99.90
8778;DHT22;4425;50.872;4.712;2023-04-06T09:22:35;8.80;99.90
8778;DHT22;4425;50.872;4.712;2023-04-06T09:25:05;8.90;99.90
8778;DHT22;4425;50.872;4.712;2023-04-06T09:27:34;8.90;99.90
8778;DHT22;4425;50.872;4.712;2023-04-06T09:30:06;9.00;99.90
8778;DHT22;4425;50.872;4.712;2023-04-06T09:32:44;9.00;99.90
8778;DHT22;4425;50.872;4.712;2023-04-06T09:35:12;9.10;99.90
8778;DHT22;4425;50.872;4.712;2023-04-06T09:37:39;9.20;99.90
8778;DHT22;4425;50.872;4.712;2023-04-06T09:40:09;9.40;99.90
8778;DHT22;4425;50.872;4.712;2023-04-06T09:42:36;9.60;99.90
8778;DHT22;4425;50.872;4.712;2023-04-06T09:45:03;9.60;99.90
8778;DHT22;4425;50.872;4.712;2023-04-06T09:47:31;9.60;99.90
8778;DHT22;4425;50.872;4.712;2023-04-06T09:50:00;9.60;99.90
8778;DHT22;4425;50.872;4.712;2023-04-06T09:52:32;9.70;99.90
8778;DHT22;4425;50.872;4.712;2023-04-06T09:55:03;9.70;99.90
8778;DHT22;4425;50.872;4.712;2023-04-06T09:57:35;9.70;99.90
8778;DHT22;4425;50.872;4.712;2023-04-06T10:00:05;9.60;99.90
8778;DHT22;4425;50.872;4.712;2023-04-06T10:02:41;9.60;99.90
8778;DHT22;4425;50.872;4.712;2023-04-06T10:05:17;9.50;99.90
8778;DHT22;4425;50.872;4.712;2023-04-06T10:07:47;9.50;99.90
8778;DHT22;4425;50.872;4.712;2023-04-06T10:10:14;9.50;99.90
8778;DHT22;4425;50.872;4.712;2023-04-06T10:12:43;9.50;99.90
8778;DHT22;4425;50.872;4.712;2023-04-06T10:15:11;9.40;99.90
8778;DHT22;4425;50.872;4.712;2023-04-06T10:17:39;9.40;99.90
8778;DHT22;4425;50.872;4.712;2023-04-06T10:20:10;9.50;99.90
8778;DHT22;4425;50.872;4.712;2023-04-06T10:22:43;9.50;99.90
8778;DHT22;4425;50.872;4.712;2023-04-06T10:25:16;9.50;99.90
8778;DHT22;4425;50.872;4.712;2023-04-06T10:27:45;9.30;99.90
8778;DHT22;4425;50.872;4.712;2023-04-06T10:30:15;9.10;99.90
8778;DHT22;4425;50.872;4.712;2023-04-06T10:32:43;9.10;99.90
8778;DHT22;4425;50.872;4.712;2023-04-06T10:35:11;9.20;99.90
8778;DHT22;4425;50.872;4.712;2023-04-06T10:37:51;9.20;99.90
8778;DHT22;4425;50.872;4.712;2023-04-06T10:40:23;9.30;99.90
8778;DHT22;4425;50.872;4.712;2023-04-06T10:42:54;9.30;99.90
8778;DHT22;4425;50.872;4.712;2023-04-06T10:45:23;9.20;99.90
8778;DHT22;4425;50.872;4.712;2023-04-06T10:47:53;9.20;99.90
8778;DHT22;4425;50.872;4.712;2023-04-06T10:50:22;9.20;99.90
8778;DHT22;4425;50.872;4.712;2023-04-06T10:52:59;9.20;99.90
8778;DHT22;4425;50.872;4.712;2023-04-06T10:55:26;9.30;99.90
8778;DHT22;4425;50.872;4.712;2023-04-06T10:57:55;9.40;99.90
8778;DHT22;4425;50.872;4.712;2023-04-06T11:00:23;9.30;99.90
8778;DHT22;4425;50.872;4.712;2023-04-06T11:02:50;9.30;99.90
8778;DHT22;4425;50.872;4.712;2023-04-06T11:05:17;9.30;99.90
8778;DHT22;4425;50.872;4.712;2023-04-06T11:07:44;9.30;99.90
8778;DHT22;4425;50.872;4.712;2023-04-06T11:10:11;9.20;99.90
8778;DHT22;4425;50.872;4.712;2023-04-06T11:12:38;9.30;99.90
8778;DHT22;4425;50.872;4.712;2023-04-06T11:15:11;9.30;99.90
8778;DHT22;4425;50.872;4.712;2023-04-06T11:17:38;9.30;99.90
8778;DHT22;4425;50.872;4.712;2023-04-06T11:20:10;9.30;99.90
8778;DHT22;4425;50.872;4.712;2023-04-06T11:22:48;9.40;99.90
8778;DHT22;4425;50.872;4.712;2023-04-06T11:25:15;9.30;99.90
8778;DHT22;4425;50.872;4.712;2023-04-06T11:27:43;9.30;99.90
8778;DHT22;4425;50.872;4.712;2023-04-06T11:30:13;9.30;99.90
8778;DHT22;4425;50.872;4.712;2023-04-06T11:32:40;9.30;99.90
8778;DHT22;4425;50.872;4.712;2023-04-06T11:35:11;9.30;99.90
8778;DHT22;4425;50.872;4.712;2023-04-06T11:37:39;9.30;99.90
8778;DHT22;4425;50.872;4.712;2023-04-06T11:40:08;9.30;99.90
8778;DHT22;4425;50.872;4.712;2023-04-06T11:42:37;9.30;99.90
8778;DHT22;4425;50.872;4.712;2023-04-06T11:45:06;9.30;99.90
8778;DHT22;4425;50.872;4.712;2023-04-06T11:47:36;9.40;99.90
8778;DHT22;4425;50.872;4.712;2023-04-06T11:50:07;9.30;99.90
8778;DHT22;4425;50.872;4.712;2023-04-06T11:52:35;9.30;99.90
8778;DHT22;4425;50.872;4.712;2023-04-06T11:55:11;9.40;99.90
8778;DHT22;4425;50.872;4.712;2023-04-06T11:57:38;9.30;99.90
8778;DHT22;4425;50.872;4.712;2023-04-06T12:00:06;9.40;99.90
8778;DHT22;4425;50.872;4.712;2023-04-06T12:02:35;9.40;99.90
8778;DHT22;4425;50.872;4.712;2023-04-06T12:05:03;9.30;99.90
8778;DHT22;4425;50.872;4.712;2023-04-06T12:07:31;9.40;99.90
8778;DHT22;4425;50.872;4.712;2023-04-06T12:09:58;9.40;99.90
8778;DHT22;4425;50.872;4.712;2023-04-06T12:12:25;9.30;99.90
8778;DHT22;4425;50.872;4.712;2023-04-06T12:14:52;9.30;99.90
8778;DHT22;4425;50.872;4.712;2023-04-06T12:17:19;9.30;99.90
8778;DHT22;4425;50.872;4.712;2023-04-06T12:19:52;9.40;99.90
8778;DHT22;4425;50.872;4.712;2023-04-06T12:22:19;9.40;99.90
8778;DHT22;4425;50.872;4.712;2023-04-06T12:24:46;9.40;99.90
8778;DHT22;4425;50.872;4.712;2023-04-06T12:27:13;9.30;99.90
8778;DHT22;4425;50.872;4.712;2023-04-06T12:29:42;9.40;99.90
8778;DHT22;4425;50.872;4.712;2023-04-06T12:32:09;9.40;99.90
8778;DHT22;4425;50.872;4.712;2023-04-06T12:34:38;9.40;99.90
8778;DHT22;4425;50.872;4.712;2023-04-06T12:37:06;9.50;99.90
8778;DHT22;4425;50.872;4.712;2023-04-06T12:39:33;9.70;99.90
8778;DHT22;4425;50.872;4.712;2023-04-06T12:42:01;9.80;99.90
8778;DHT22;4425;50.872;4.712;2023-04-06T12:44:28;9.80;99.90
8778;DHT22;4425;50.872;4.712;2023-04-06T12:46:55;9.90;99.90
8778;DHT22;4425;50.872;4.712;2023-04-06T12:49:23;9.90;99.90
8778;DHT22;4425;50.872;4.712;2023-04-06T12:51:50;9.80;99.90
8778;DHT22;4425;50.872;4.712;2023-04-06T12:54:18;9.80;99.90
8778;DHT22;4425;50.872;4.712;2023-04-06T12:56:45;9.80;99.90
8778;DHT22;4425;50.872;4.712;2023-04-06T12:59:12;9.80;99.90
8778;DHT22;4425;50.872;4.712;2023-04-06T13:01:40;9.80;99.90
8778;DHT22;4425;50.872;4.712;2023-04-06T13:04:07;9.80;99.90
8778;DHT22;4425;50.872;4.712;2023-04-06T13:06:34;9.70;99.90
8778;DHT22;4425;50.872;4.712;2023-04-06T13:09:01;9.70;99.90
8778;DHT22;4425;50.872;4.712;2023-04-06T13:11:31;9.80;99.90
8778;DHT22;4425;50.872;4.712;2023-04-06T13:13:58;9.80;99.90
8778;DHT22;4425;50.872;4.712;2023-04-06T13:16:25;9.80;99.90
8778;DHT22;4425;50.872;4.712;2023-04-06T13:18:52;9.70;99.90
8778;DHT22;4425;50.872;4.712;2023-04-06T13:21:19;9.70;99.90
8778;DHT22;4425;50.872;4.712;2023-04-06T13:23:46;9.60;99.90
8778;DHT22;4425;50.872;4.712;2023-04-06T13:26:13;9.60;99.90
8778;DHT22;4425;50.872;4.712;2023-04-06T13:28:43;9.60;99.90
8778;DHT22;4425;50.872;4.712;2023-04-06T13:31:11;9.60;99.90
8778;DHT22;4425;50.872;4.712;2023-04-06T13:33:38;9.50;99.90
8778;DHT22;4425;50.872;4.712;2023-04-06T13:36:06;9.50;99.90
8778;DHT22;4425;50.872;4.712;2023-04-06T13:38:34;9.40;99.90
8778;DHT22;4425;50.872;4.712;2023-04-06T13:41:03;9.40;99.90
8778;DHT22;4425;50.872;4.712;2023-04-06T13:43:30;9.30;99.90
8778;DHT22;4425;50.872;4.712;2023-04-06T13:45:58;9.40;99.90
8778;DHT22;4425;50.872;4.712;2023-04-06T13:48:26;9.40;99.90
8778;DHT22;4425;50.872;4.712;2023-04-06T13:50:54;9.40;99.90
8778;DHT22;4425;50.872;4.712;2023-04-06T13:53:21;9.40;99.90
8778;DHT22;4425;50.872;4.712;2023-04-06T13:55:53;9.40;99.90
8778;DHT22;4425;50.872;4.712;2023-04-06T13:58:22;9.60;99.90
8778;DHT22;4425;50.872;4.712;2023-04-06T14:00:49;9.40;99.90
8778;DHT22;4425;50.872;4.712;2023-04-06T14:03:17;9.60;99.90
8778;DHT22;4425;50.872;4.712;2023-04-06T14:05:44;9.80;99.90
8778;DHT22;4425;50.872;4.712;2023-04-06T14:08:11;9.60;99.90
8778;DHT22;4425;50.872;4.712;2023-04-06T14:10:39;9.50;99.90
8778;DHT22;4425;50.872;4.712;2023-04-06T14:13:07;9.70;99.90
8778;DHT22;4425;50.872;4.712;2023-04-06T14:15:35;9.50;99.90
8778;DHT22;4425;50.872;4.712;2023-04-06T14:18:02;9.50;99.90
8778;DHT22;4425;50.872;4.712;2023-04-06T14:20:32;9.50;99.90
8778;DHT22;4425;50.872;4.712;2023-04-06T14:22:59;9.50;99.90
8778;DHT22;4425;50.872;4.712;2023-04-06T14:25:26;9.80;99.90
8778;DHT22;4425;50.872;4.712;2023-04-06T14:27:53;9.80;99.90
8778;DHT22;4425;50.872;4.712;2023-04-06T14:30:20;9.60;99.90
8778;DHT22;4425;50.872;4.712;2023-04-06T14:32:47;9.70;99.90
8778;DHT22;4425;50.872;4.712;2023-04-06T14:35:14;9.80;99.90
8778;DHT22;4425;50.872;4.712;2023-04-06T14:37:43;9.70;99.90
8778;DHT22;4425;50.872;4.712;2023-04-06T14:40:11;9.70;99.90
8778;DHT22;4425;50.872;4.712;2023-04-06T14:42:38;9.70;99.90
8778;DHT22;4425;50.872;4.712;2023-04-06T14:45:06;9.60;99.90
8778;DHT22;4425;50.872;4.712;2023-04-06T14:47:33;9.60;99.90
8778;DHT22;4425;50.872;4.712;2023-04-06T14:50:00;9.50;99.90
8778;DHT22;4425;50.872;4.712;2023-04-06T14:52:27;9.60;99.90
8778;DHT22;4425;50.872;4.712;2023-04-06T14:54:59;9.50;99.90
8778;DHT22;4425;50.872;4.712;2023-04-06T14:57:26;9.40;99.90
8778;DHT22;4425;50.872;4.712;2023-04-06T14:59:53;9.50;99.90
8778;DHT22;4425;50.872;4.712;2023-04-06T15:02:20;9.50;99.90
8778;DHT22;4425;50.872;4.712;2023-04-06T15:04:46;9.50;99.90
8778;DHT22;4425;50.872;4.712;2023-04-06T15:07:13;9.50;99.90
8778;DHT22;4425;50.872;4.712;2023-04-06T15:09:40;9.60;99.90
8778;DHT22;4425;50.872;4.712;2023-04-06T15:12:09;9.80;99.90
8778;DHT22;4425;50.872;4.712;2023-04-06T15:14:36;9.60;99.90
8778;DHT22;4425;50.872;4.712;2023-04-06T15:17:03;9.70;99.90
8778;DHT22;4425;50.872;4.712;2023-04-06T15:19:29;9.80;99.90
8778;DHT22;4425;50.872;4.712;2023-04-06T15:21:57;10.00;99.90
8778;DHT22;4425;50.872;4.712;2023-04-06T15:24:24;10.00;99.90
8778;DHT22;4425;50.872;4.712;2023-04-06T15:26:51;10.00;99.90
8778;DHT22;4425;50.872;4.712;2023-04-06T15:29:20;9.90;99.90
8778;DHT22;4425;50.872;4.712;2023-04-06T15:31:47;10.10;99.90
8778;DHT22;4425;50.872;4.712;2023-04-06T15:34:14;10.20;99.90
8778;DHT22;4425;50.872;4.712;2023-04-06T15:36:41;10.20;99.90
8778;DHT22;4425;50.872;4.712;2023-04-06T15:39:10;10.20;99.90
8778;DHT22;4425;50.872;4.712;2023-04-06T15:41:36;10.20;99.90
8778;DHT22;4425;50.872;4.712;2023-04-06T15:44:03;10.30;99.90
8778;DHT22;4425;50.872;4.712;2023-04-06T15:46:32;10.30;99.90
8778;DHT22;4425;50.872;4.712;2023-04-06T15:48:59;10.20;99.90
8778;DHT22;4425;50.872;4.712;2023-04-06T15:51:26;10.20;99.90
8778;DHT22;4425;50.872;4.712;2023-04-06T15:53:54;10.10;99.90
8778;DHT22;4425;50.872;4.712;2023-04-06T15:56:23;10.30;99.90
8778;DHT22;4425;50.872;4.712;2023-04-06T15:58:50;10.30;99.90
8778;DHT22;4425;50.872;4.712;2023-04-06T16:01:17;10.30;99.90
8778;DHT22;4425;50.872;4.712;2023-04-06T16:03:46;10.40;99.90
8778;DHT22;4425;50.872;4.712;2023-04-06T16:06:13;10.40;99.90
8778;DHT22;4425;50.872;4.712;2023-04-06T16:08:40;10.30;99.90
8778;DHT22;4425;50.872;4.712;2023-04-06T16:11:08;10.20;99.90
8778;DHT22;4425;50.872;4.712;2023-04-06T16:13:35;10.50;99.90
8778;DHT22;4425;50.872;4.712;2023-04-06T16:16:03;10.20;99.90
8778;DHT22;4425;50.872;4.712;2023-04-06T16:18:30;10.20;99.90
8778;DHT22;4425;50.872;4.712;2023-04-06T16:21:02;10.20;99.90